createdAt,value
2022-08-19T00:02:01.305Z,21.74
2022-08-19T00:04:33.574Z,21.79
2022-08-19T00:07:01.015Z,21.81
2022-08-19T00:09:28.936Z,21.81
2022-08-19T00:11:57.437Z,21.81
2022-08-19T00:14:25.631Z,21.83
2022-08-19T00:16:55.371Z,21.80
2022-08-19T00:19:22.808Z,21.74
2022-08-19T00:21:49.364Z,21.79
2022-08-19T00:24:16.521Z,21.80
2022-08-19T00:26:45.395Z,21.64
2022-08-19T00:29:14.557Z,21.76
2022-08-19T00:31:42.790Z,21.71
2022-08-19T00:34:09.720Z,21.56
2022-08-19T00:36:36.242Z,21.64
2022-08-19T00:39:03.356Z,21.54
2022-08-19T00:41:30.074Z,21.63
2022-08-19T00:44:07.435Z,21.60
2022-08-19T00:46:37.468Z,21.57
2022-08-19T00:49:10.797Z,21.61
2022-08-19T00:51:37.592Z,21.65
2022-08-19T00:54:04.652Z,21.64
2022-08-19T00:56:32.307Z,21.69
2022-08-19T00:59:02.725Z,21.71
2022-08-19T01:01:29.751Z,21.73
2022-08-19T01:03:57.972Z,21.66
2022-08-19T01:06:26.674Z,21.64
2022-08-19T01:08:53.491Z,21.72
2022-08-19T01:11:20.059Z,21.69
2022-08-19T01:13:50.084Z,21.70
2022-08-19T01:16:18.667Z,21.69
2022-08-19T01:18:45.909Z,21.69
2022-08-19T01:21:43.542Z,21.70
2022-08-19T01:24:10.118Z,21.70
2022-08-19T01:26:45.767Z,21.68
2022-08-19T01:29:15.341Z,21.72
2022-08-19T01:31:42.120Z,21.70
2022-08-19T01:34:08.781Z,21.75
2022-08-19T01:36:46.508Z,21.77
2022-08-19T01:39:17.285Z,21.73
2022-08-19T01:41:44.000Z,21.68
2022-08-19T01:44:18.708Z,21.76
2022-08-19T01:46:48.605Z,21.74
2022-08-19T01:49:17.376Z,21.76
2022-08-19T01:51:43.947Z,21.71
2022-08-19T01:54:13.100Z,21.68
2022-08-19T01:56:39.963Z,21.69
2022-08-19T01:59:13.189Z,21.67
2022-08-19T02:01:39.814Z,21.63
2022-08-19T02:04:06.765Z,21.61
2022-08-19T02:06:34.124Z,21.58
2022-08-19T02:09:00.735Z,21.48
2022-08-19T02:11:34.516Z,21.58
2022-08-19T02:14:04.434Z,21.57
2022-08-19T02:16:31.686Z,21.47
2022-08-19T02:19:01.530Z,21.58
2022-08-19T02:21:29.272Z,21.46
2022-08-19T02:23:56.380Z,21.55
2022-08-19T02:26:22.989Z,21.46
2022-08-19T02:28:49.536Z,21.38
2022-08-19T02:31:20.051Z,21.60
2022-08-19T02:33:47.005Z,21.60
2022-08-19T02:36:15.553Z,21.58
2022-08-19T02:38:43.283Z,21.61
2022-08-19T02:41:19.325Z,21.60
2022-08-19T02:44:18.345Z,21.56
2022-08-19T02:46:34.393Z,21.55
2022-08-19T02:49:06.113Z,21.53
2022-08-19T02:51:36.512Z,21.57
2022-08-19T02:54:05.024Z,21.57
2022-08-19T02:56:32.211Z,21.54
2022-08-19T02:58:59.314Z,21.50
2022-08-19T03:01:30.272Z,21.47
2022-08-19T03:03:57.940Z,21.41
2022-08-19T03:06:24.665Z,21.35
2022-08-19T03:08:51.719Z,21.34
2022-08-19T03:11:27.857Z,21.30
2022-08-19T03:13:55.306Z,21.28
2022-08-19T03:16:28.493Z,21.23
2022-08-19T03:18:56.996Z,21.13
2022-08-19T03:21:25.847Z,21.24
2022-08-19T03:23:56.477Z,21.23
2022-08-19T03:26:23.102Z,21.02
2022-08-19T03:28:51.671Z,21.15
2022-08-19T03:31:44.351Z,21.13
2022-08-19T03:34:18.715Z,21.07
2022-08-19T03:36:46.735Z,21.07
2022-08-19T03:39:13.561Z,21.03
2022-08-19T03:41:45.319Z,21.02
2022-08-19T03:44:19.427Z,21.04
2022-08-19T03:46:56.247Z,21.00
2022-08-19T03:49:27.132Z,20.88
2022-08-19T03:51:57.663Z,21.00
2022-08-19T03:54:25.445Z,20.88
2022-08-19T03:56:54.640Z,21.06
2022-08-19T03:59:26.060Z,21.13
2022-08-19T04:01:54.468Z,21.18
2022-08-19T04:04:21.028Z,21.16
2022-08-19T04:06:48.199Z,21.13
2022-08-19T04:09:14.883Z,21.10
2022-08-19T04:11:47.851Z,21.10
2022-08-19T04:14:18.838Z,21.07
2022-08-19T04:16:46.158Z,21.08
2022-08-19T04:19:14.034Z,21.07
2022-08-19T04:21:41.419Z,21.00
2022-08-19T04:24:08.196Z,20.96
2022-08-19T04:26:37.644Z,20.83
2022-08-19T04:29:27.875Z,20.81
2022-08-19T04:31:56.575Z,20.81
2022-08-19T04:34:25.778Z,20.77
2022-08-19T04:36:54.362Z,20.71
2022-08-19T04:39:44.672Z,20.71
2022-08-19T04:42:30.798Z,20.75
2022-08-19T04:44:59.649Z,20.66
2022-08-19T04:47:47.819Z,20.80
2022-08-19T04:50:13.252Z,20.78
2022-08-19T04:52:43.811Z,20.78
2022-08-19T04:55:15.203Z,20.94
2022-08-19T04:57:42.152Z,21.01
2022-08-19T05:00:12.108Z,21.02
2022-08-19T05:02:39.655Z,20.94
2022-08-19T05:05:07.601Z,21.00
2022-08-19T05:07:34.879Z,21.08
2022-08-19T05:10:01.588Z,21.11
2022-08-19T05:12:29.780Z,21.16
2022-08-19T05:14:58.009Z,21.18
2022-08-19T05:17:27.907Z,21.20
2022-08-19T05:20:14.874Z,21.25
2022-08-19T05:22:42.836Z,21.30
2022-08-19T05:25:13.817Z,21.36
2022-08-19T05:27:42.310Z,21.40
2022-08-19T05:30:10.291Z,21.46
2022-08-19T05:32:37.203Z,21.52
2022-08-19T05:35:05.452Z,21.58
2022-08-19T05:37:31.991Z,21.69
2022-08-19T05:39:58.624Z,21.72
2022-08-19T05:42:25.255Z,21.79
2022-08-19T05:44:52.064Z,21.99
2022-08-19T05:47:20.627Z,22.05
2022-08-19T05:49:48.154Z,22.02
2022-08-19T05:52:18.722Z,21.87
2022-08-19T05:54:51.321Z,21.95
2022-08-19T05:57:19.173Z,21.93
2022-08-19T05:59:48.684Z,22.05
2022-08-19T06:02:15.685Z,22.07
2022-08-19T06:04:43.886Z,22.00
2022-08-19T06:07:12.189Z,22.17
2022-08-19T06:09:40.405Z,22.27
2022-08-19T06:12:07.522Z,22.32
2022-08-19T06:14:40.203Z,22.31
2022-08-19T06:17:07.648Z,22.39
2022-08-19T06:19:34.775Z,22.50
2022-08-19T06:22:07.754Z,22.50
2022-08-19T06:24:34.616Z,22.57
2022-08-19T06:27:01.983Z,22.54
2022-08-19T06:29:31.188Z,22.42
2022-08-19T06:32:00.519Z,22.39
2022-08-19T06:34:29.634Z,22.51
2022-08-19T06:36:57.338Z,22.70
2022-08-19T06:39:26.693Z,22.87
2022-08-19T06:41:58.693Z,22.89
2022-08-19T06:44:27.978Z,23.14
2022-08-19T06:46:56.106Z,23.31
2022-08-19T06:49:24.289Z,23.37
2022-08-19T06:51:51.944Z,23.65
2022-08-19T06:54:20.246Z,23.89
2022-08-19T06:56:48.098Z,24.08
2022-08-19T06:59:18.813Z,23.93
2022-08-19T07:01:47.974Z,24.18
2022-08-19T07:04:20.950Z,24.18
2022-08-19T07:06:54.907Z,24.26
2022-08-19T07:09:21.823Z,24.35
2022-08-19T07:11:51.648Z,24.37
2022-08-19T07:14:24.847Z,24.40
2022-08-19T07:16:53.105Z,24.29
2022-08-19T07:19:20.597Z,24.34
2022-08-19T07:21:50.603Z,24.34
2022-08-19T07:24:18.184Z,24.63
2022-08-19T07:26:45.661Z,24.87
2022-08-19T07:29:13.709Z,25.15
2022-08-19T07:31:40.745Z,25.33
2022-08-19T07:34:14.334Z,25.43
2022-08-19T07:36:43.171Z,25.55
2022-08-19T07:39:19.735Z,25.71
2022-08-19T07:41:47.272Z,25.73
2022-08-19T07:44:15.146Z,25.69
2022-08-19T07:46:46.518Z,25.72
2022-08-19T07:49:19.997Z,25.96
2022-08-19T07:52:02.239Z,25.99
2022-08-19T07:54:31.435Z,25.97
2022-08-19T07:56:58.279Z,25.89
2022-08-19T07:59:25.091Z,25.92
2022-08-19T08:01:52.452Z,25.90
2022-08-19T08:04:38.682Z,25.96
2022-08-19T08:07:25.581Z,25.89
2022-08-19T08:09:58.622Z,25.97
2022-08-19T08:12:35.170Z,26.03
2022-08-19T08:15:08.940Z,26.17
2022-08-19T08:17:49.310Z,26.29
2022-08-19T08:20:19.131Z,26.31
2022-08-19T08:23:06.143Z,26.49
2022-08-19T08:25:34.391Z,26.77
2022-08-19T08:28:02.430Z,27.12
2022-08-19T08:30:32.808Z,27.20
2022-08-19T08:32:59.776Z,26.68
2022-08-19T08:35:26.348Z,26.34
2022-08-19T08:37:55.569Z,26.04
2022-08-19T08:40:33.072Z,25.98
2022-08-19T08:43:32.411Z,25.71
2022-08-19T08:46:12.363Z,25.70
2022-08-19T08:48:54.451Z,25.49
2022-08-19T08:51:49.068Z,25.42
2022-08-19T08:54:33.230Z,25.78
2022-08-19T08:57:03.367Z,26.17
2022-08-19T08:59:35.236Z,26.12
2022-08-19T09:02:01.910Z,26.34
2022-08-19T09:04:29.188Z,26.36
2022-08-19T09:07:22.878Z,26.32
2022-08-19T09:10:27.751Z,26.40
2022-08-19T09:13:24.748Z,26.32
2022-08-19T09:16:13.969Z,26.37
2022-08-19T09:18:40.475Z,26.41
2022-08-19T09:21:08.709Z,26.59
2022-08-19T09:23:36.651Z,26.65
2022-08-19T09:26:14.440Z,26.55
2022-08-19T09:28:44.954Z,26.32
2022-08-19T09:31:18.693Z,26.23
2022-08-19T09:33:45.875Z,25.99
2022-08-19T09:36:21.647Z,26.30
2022-08-19T09:38:54.017Z,26.28
2022-08-19T09:41:23.074Z,26.20
2022-08-19T09:43:53.113Z,26.30
2022-08-19T09:46:23.992Z,26.20
2022-08-19T09:48:52.313Z,26.36
2022-08-19T09:51:25.617Z,26.65
2022-08-19T09:53:54.928Z,26.68
2022-08-19T09:56:22.790Z,26.71
2022-08-19T09:58:52.050Z,26.74
2022-08-19T10:01:22.355Z,26.65
2022-08-19T10:03:52.119Z,26.68
2022-08-19T10:06:19.581Z,26.55
2022-08-19T10:09:08.985Z,26.43
2022-08-19T10:11:40.088Z,26.53
2022-08-19T10:14:08.116Z,26.62
2022-08-19T10:16:39.475Z,26.60
2022-08-19T10:19:06.237Z,26.39
2022-08-19T10:21:35.207Z,26.08
2022-08-19T10:24:04.975Z,26.24
2022-08-19T10:26:38.281Z,26.47
2022-08-19T10:29:06.443Z,26.98
2022-08-19T10:32:01.337Z,27.28
2022-08-19T10:34:27.849Z,27.40
2022-08-19T10:37:00.938Z,27.30
2022-08-19T10:39:32.865Z,27.02
2022-08-19T10:42:08.270Z,26.73
2022-08-19T10:44:36.439Z,26.60
2022-08-19T10:47:04.735Z,26.67
2022-08-19T10:50:02.952Z,26.73
2022-08-19T10:52:35.160Z,26.83
2022-08-19T10:55:26.355Z,26.60
2022-08-19T10:58:03.641Z,26.84
2022-08-19T11:00:32.435Z,27.11
2022-08-19T11:02:59.011Z,27.48
2022-08-19T11:05:25.594Z,27.56
2022-08-19T11:07:52.759Z,27.70
2022-08-19T11:10:21.862Z,27.66
2022-08-19T11:12:49.152Z,27.83
2022-08-19T11:15:16.324Z,28.04
2022-08-19T11:17:44.789Z,28.15
2022-08-19T11:20:15.923Z,28.07
2022-08-19T11:22:43.230Z,28.18
2022-08-19T11:25:11.882Z,28.25
2022-08-19T11:27:44.401Z,28.46
2022-08-19T11:30:14.063Z,28.71
2022-08-19T11:32:48.781Z,28.47
2022-08-19T11:35:17.114Z,27.91
2022-08-19T11:37:43.734Z,27.58
2022-08-19T11:40:10.923Z,27.51
2022-08-19T11:42:56.607Z,27.26
2022-08-19T11:45:28.162Z,27.36
2022-08-19T11:47:55.590Z,27.67
2022-08-19T11:50:26.438Z,28.11
2022-08-19T11:52:57.908Z,28.19
2022-08-19T11:55:24.990Z,27.96
2022-08-19T11:57:51.694Z,27.70
2022-08-19T12:00:18.430Z,27.57
2022-08-19T12:02:44.971Z,27.37
2022-08-19T12:05:12.865Z,27.61
2022-08-19T12:07:41.783Z,27.97
2022-08-19T12:10:08.966Z,28.46
2022-08-19T12:12:35.614Z,28.77
2022-08-19T12:15:02.812Z,28.94
2022-08-19T12:17:29.651Z,28.77
2022-08-19T12:19:56.291Z,28.75
2022-08-19T12:22:23.061Z,28.42
2022-08-19T12:24:51.773Z,28.22
2022-08-19T12:27:31.086Z,28.15
2022-08-19T12:30:08.744Z,28.07
2022-08-19T12:32:35.767Z,27.79
2022-08-19T12:35:02.340Z,27.64
2022-08-19T12:37:28.876Z,27.63
2022-08-19T12:39:55.503Z,27.64
2022-08-19T12:42:22.999Z,27.68
2022-08-19T12:44:49.555Z,27.54
2022-08-19T12:47:16.145Z,27.52
2022-08-19T12:49:53.867Z,27.67
2022-08-19T12:52:23.803Z,28.16
2022-08-19T12:54:53.803Z,28.71
2022-08-19T12:57:21.643Z,29.01
2022-08-19T12:59:54.613Z,28.91
2022-08-19T13:02:22.335Z,28.81
2022-08-19T13:04:48.857Z,28.81
2022-08-19T13:07:15.576Z,28.85
2022-08-19T13:09:43.561Z,28.67
2022-08-19T13:12:13.833Z,28.33
2022-08-19T13:14:42.009Z,28.26
2022-08-19T13:17:09.574Z,28.31
2022-08-19T13:19:38.004Z,28.54
2022-08-19T13:22:04.591Z,28.81
2022-08-19T13:24:42.860Z,28.64
2022-08-19T13:27:11.782Z,28.76
2022-08-19T13:30:00.080Z,29.09
2022-08-19T13:32:44.978Z,29.05
2022-08-19T13:35:14.912Z,29.06
2022-08-19T13:37:45.598Z,29.20
2022-08-19T13:40:18.010Z,29.12
2022-08-19T13:42:47.381Z,29.09
2022-08-19T13:45:16.157Z,29.03
2022-08-19T13:47:45.865Z,28.97
2022-08-19T13:50:14.752Z,28.81
2022-08-19T13:52:41.537Z,28.84
2022-08-19T13:55:09.329Z,28.88
2022-08-19T13:57:36.246Z,29.01
2022-08-19T14:00:05.741Z,29.05
2022-08-19T14:02:32.377Z,28.91
2022-08-19T14:04:59.871Z,29.00
2022-08-19T14:07:26.462Z,28.90
2022-08-19T14:09:53.019Z,28.87
2022-08-19T14:12:28.421Z,28.85
2022-08-19T14:14:55.492Z,28.66
2022-08-19T14:17:22.548Z,28.73
2022-08-19T14:19:49.094Z,28.71
2022-08-19T14:22:15.680Z,28.89
2022-08-19T14:24:49.266Z,29.08
2022-08-19T14:27:15.834Z,29.06
2022-08-19T14:29:42.796Z,29.16
2022-08-19T14:32:14.449Z,29.53
2022-08-19T14:34:43.534Z,29.75
2022-08-19T14:37:10.499Z,29.96
2022-08-19T14:39:43.644Z,29.80
2022-08-19T14:42:11.568Z,29.28
2022-08-19T14:44:38.672Z,28.98
2022-08-19T14:47:05.432Z,28.91
2022-08-19T14:49:35.003Z,28.76
2022-08-19T14:52:08.962Z,28.90
2022-08-19T14:54:35.541Z,28.92
2022-08-19T14:57:02.189Z,29.14
2022-08-19T14:59:28.917Z,29.23
2022-08-19T15:01:55.521Z,29.17
2022-08-19T15:04:22.121Z,28.96
2022-08-19T15:06:48.717Z,28.98
2022-08-19T15:09:15.315Z,29.04
2022-08-19T15:11:43.637Z,29.14
2022-08-19T15:14:11.123Z,29.07
2022-08-19T15:16:38.983Z,29.22
2022-08-19T15:19:05.528Z,29.21
2022-08-19T15:21:32.116Z,29.09
2022-08-19T15:23:59.852Z,29.12
2022-08-19T15:26:28.695Z,29.10
2022-08-19T15:28:55.421Z,29.14
2022-08-19T15:31:28.504Z,28.91
2022-08-19T15:33:59.249Z,28.91
2022-08-19T15:36:27.170Z,28.81
2022-08-19T15:38:54.138Z,28.89
2022-08-19T15:41:27.405Z,28.75
2022-08-19T15:43:59.681Z,28.65
2022-08-19T15:46:29.370Z,28.70
2022-08-19T15:48:59.898Z,28.92
2022-08-19T15:51:28.874Z,29.01
2022-08-19T15:53:55.585Z,29.13
2022-08-19T15:56:26.705Z,29.18
2022-08-19T15:59:12.536Z,29.19
2022-08-19T16:01:57.921Z,29.20
2022-08-19T16:04:43.603Z,29.17
2022-08-19T16:07:10.343Z,29.20
2022-08-19T16:09:36.955Z,29.27
2022-08-19T16:12:06.108Z,29.10
2022-08-19T16:14:35.335Z,29.12
2022-08-19T16:17:02.380Z,29.06
2022-08-19T16:19:28.974Z,28.95
2022-08-19T16:21:56.875Z,28.96
2022-08-19T16:24:26.854Z,29.04
2022-08-19T16:26:54.244Z,28.95
2022-08-19T16:29:34.533Z,28.91
2022-08-19T16:32:07.896Z,28.81
2022-08-19T16:34:34.661Z,28.78
2022-08-19T16:37:01.410Z,28.69
2022-08-19T16:39:28.018Z,28.76
2022-08-19T16:41:54.665Z,28.96
2022-08-19T16:44:21.482Z,28.93
2022-08-19T16:46:55.725Z,29.00
2022-08-19T16:49:53.051Z,29.02
2022-08-19T16:52:17.545Z,29.08
2022-08-19T16:54:44.764Z,28.94
2022-08-19T16:57:12.351Z,29.05
2022-08-19T16:59:42.598Z,28.94
2022-08-19T17:02:17.629Z,28.98
2022-08-19T17:04:44.228Z,29.06
2022-08-19T17:07:22.553Z,29.12
2022-08-19T17:09:49.421Z,29.01
2022-08-19T17:12:17.438Z,29.03
2022-08-19T17:14:46.098Z,29.02
2022-08-19T17:17:12.909Z,28.98
2022-08-19T17:19:41.816Z,29.00
2022-08-19T17:22:11.373Z,28.93
2022-08-19T17:24:38.630Z,28.81
2022-08-19T17:27:07.819Z,28.70
2022-08-19T17:29:34.980Z,28.66
2022-08-19T17:32:02.019Z,28.47
2022-08-19T17:34:28.713Z,28.49
2022-08-19T17:36:57.155Z,28.32
2022-08-19T17:39:25.348Z,28.33
2022-08-19T17:41:52.069Z,28.23
2022-08-19T17:44:18.991Z,28.16
2022-08-19T17:46:46.664Z,28.10
2022-08-19T17:49:13.575Z,28.07
2022-08-19T17:51:44.008Z,27.94
2022-08-19T17:54:15.230Z,27.96
2022-08-19T17:56:42.340Z,27.85
2022-08-19T17:59:13.887Z,27.70
2022-08-19T18:01:53.441Z,27.74
2022-08-19T18:04:21.282Z,27.66
2022-08-19T18:06:53.143Z,27.59
2022-08-19T18:09:41.694Z,27.57
2022-08-19T18:12:10.855Z,27.53
2022-08-19T18:14:39.365Z,27.46
2022-08-19T18:17:10.825Z,27.33
2022-08-19T18:19:41.094Z,27.25
2022-08-19T18:22:28.886Z,27.06
2022-08-19T18:24:57.683Z,27.06
2022-08-19T18:27:26.385Z,26.96
2022-08-19T18:29:54.658Z,26.88
2022-08-19T18:32:24.093Z,26.83
2022-08-19T18:34:51.844Z,26.77
2022-08-19T18:37:19.086Z,26.60
2022-08-19T18:40:04.441Z,26.66
2022-08-19T18:42:49.718Z,26.54
2022-08-19T18:45:34.714Z,26.58
2022-08-19T18:48:26.652Z,26.55
2022-08-19T18:50:54.791Z,26.52
2022-08-19T18:53:21.328Z,26.50
2022-08-19T18:55:52.013Z,26.40
2022-08-19T18:58:18.664Z,26.35
2022-08-19T19:00:45.501Z,26.29
2022-08-19T19:03:12.104Z,26.37
2022-08-19T19:05:39.993Z,26.35
2022-08-19T19:08:07.541Z,26.31
2022-08-19T19:10:36.226Z,26.26
2022-08-19T19:13:03.669Z,26.17
2022-08-19T19:15:30.355Z,26.18
2022-08-19T19:17:57.317Z,26.11
2022-08-19T19:20:36.688Z,26.04
2022-08-19T19:23:04.098Z,26.00
2022-08-19T19:25:50.373Z,25.89
2022-08-19T19:28:28.629Z,25.96
2022-08-19T19:30:59.805Z,25.91
2022-08-19T19:33:27.756Z,25.88
2022-08-19T19:35:54.473Z,25.83
2022-08-19T19:38:21.074Z,25.76
2022-08-19T19:40:47.665Z,25.70
2022-08-19T19:43:17.462Z,25.66
2022-08-19T19:45:44.352Z,25.60
2022-08-19T19:48:13.785Z,25.54
2022-08-19T19:50:41.216Z,25.51
2022-08-19T19:53:07.754Z,25.46
2022-08-19T19:55:34.765Z,25.29
2022-08-19T19:58:01.332Z,25.39
2022-08-19T20:00:28.097Z,25.34
2022-08-19T20:02:55.918Z,25.23
2022-08-19T20:05:24.324Z,25.27
2022-08-19T20:08:10.501Z,25.22
2022-08-19T20:10:38.153Z,25.04
2022-08-19T20:13:06.306Z,25.01
2022-08-19T20:15:33.068Z,25.11
2022-08-19T20:20:28.056Z,25.04
2022-08-19T20:22:54.648Z,25.04
2022-08-19T20:25:22.106Z,25.03
2022-08-19T20:27:51.678Z,24.98
2022-08-19T20:30:23.257Z,24.91
2022-08-19T20:32:50.281Z,24.88
2022-08-19T20:35:20.582Z,24.85
2022-08-19T20:37:47.834Z,24.79
2022-08-19T20:40:15.232Z,24.72
2022-08-19T20:42:43.512Z,24.69
2022-08-19T20:45:33.292Z,24.65
2022-08-19T20:48:02.707Z,24.44
2022-08-19T20:50:30.599Z,24.45
2022-08-19T20:52:57.554Z,24.50
2022-08-19T20:55:24.608Z,24.38
2022-08-19T20:57:51.697Z,24.35
2022-08-19T21:00:18.941Z,24.40
2022-08-19T21:02:46.905Z,24.34
2022-08-19T21:05:13.900Z,24.35
2022-08-19T21:07:40.825Z,24.33
2022-08-19T21:10:08.004Z,24.19
2022-08-19T21:12:34.947Z,24.16
2022-08-19T21:15:01.653Z,24.24
2022-08-19T21:17:28.216Z,24.06
2022-08-19T21:19:54.852Z,24.20
2022-08-19T21:22:21.857Z,24.09
2022-08-19T21:24:48.580Z,24.05
2022-08-19T21:27:15.130Z,23.99
2022-08-19T21:29:42.273Z,24.09
2022-08-19T21:32:11.235Z,23.92
2022-08-19T21:34:40.953Z,23.90
2022-08-19T21:37:11.625Z,23.84
2022-08-19T21:39:44.133Z,23.91
2022-08-19T21:42:12.602Z,23.82
2022-08-19T21:44:40.137Z,23.70
2022-08-19T21:47:12.519Z,23.80
2022-08-19T21:49:39.163Z,23.75
2022-08-19T21:52:06.287Z,23.71
2022-08-19T21:54:37.841Z,23.68
2022-08-19T21:57:09.981Z,23.61
2022-08-19T21:59:41.269Z,23.59
2022-08-19T22:02:22.054Z,23.53
2022-08-19T22:04:51.869Z,23.47
2022-08-19T22:07:21.999Z,23.44
2022-08-19T22:09:50.239Z,23.42
2022-08-19T22:12:26.435Z,23.42
2022-08-19T22:14:54.861Z,23.36
2022-08-19T22:17:22.987Z,23.38
2022-08-19T22:19:50.930Z,23.22
2022-08-19T22:22:32.524Z,23.37
2022-08-19T22:25:30.088Z,23.37
2022-08-19T22:28:00.396Z,23.36
2022-08-19T22:30:27.789Z,23.32
2022-08-19T22:33:02.760Z,23.31
2022-08-19T22:35:32.412Z,23.23
2022-08-19T22:38:00.300Z,23.19
2022-08-19T22:40:29.704Z,23.18
2022-08-19T22:43:00.699Z,23.11
2022-08-19T22:45:28.110Z,23.12
2022-08-19T22:47:55.085Z,23.14
2022-08-19T22:50:21.901Z,23.16
2022-08-19T22:52:52.266Z,23.05
2022-08-19T22:55:19.263Z,23.19
2022-08-19T22:57:45.809Z,23.17
2022-08-19T23:00:13.588Z,23.17
2022-08-19T23:02:51.686Z,23.02
2022-08-19T23:05:21.982Z,23.08
2022-08-19T23:07:52.107Z,23.11
2022-08-19T23:10:26.650Z,23.09
2022-08-19T23:12:56.941Z,22.90
2022-08-19T23:15:26.122Z,23.01
2022-08-19T23:17:55.093Z,22.97
2022-08-19T23:20:23.615Z,22.88
2022-08-19T23:22:50.952Z,22.88
2022-08-19T23:25:22.579Z,22.93
2022-08-19T23:28:07.972Z,22.86
2022-08-19T23:30:39.114Z,22.88
2022-08-19T23:33:13.383Z,22.85
2022-08-19T23:35:41.641Z,22.82
2022-08-19T23:38:09.479Z,22.79
2022-08-19T23:40:37.236Z,22.73
2022-08-19T23:43:06.235Z,22.71
2022-08-19T23:45:38.314Z,22.52
2022-08-19T23:48:05.603Z,22.63
2022-08-19T23:50:32.622Z,22.59
2022-08-19T23:53:00.557Z,22.61
2022-08-19T23:55:30.112Z,22.59
2022-08-19T23:57:57.645Z,22.55
